Terminal Aerodrome Forecast
Issued by NWS

Home | Current Version | Previous Version | Text Only | Print | Product List | Glossary On
Versions: 1 2 3 4 5 6 7 8 9 10 11 12 13 14 15 16
000
FTUS42 KGSP 261546 AAB
TAFHKY
TAF AMD
KHKY 261546Z 2616/2712 19007KT 4SM -RA BR BKN009 BKN022 OVC060
     FM262100 18008G20KT P6SM OVC040
     FM270000 17004KT P6SM VCSH BKN045=

USA.gov is the U.S. government's official web portal to all federal, state and local government web resources and services.